CYYY

Mont Joli Airport

Mont-Joli, Quebec, Canada
TAF CYYY 161342Z 1614/1702 VRB03KT P6SM FEW240 BECMG 1614/1616 28008KT BECMG 1621/1623 VRB03KT RMK NXT FCST BY 162000Z
Issued Valid From Valid To
Jul-16 @ 13:42 UTC
(6 hours ago)
Jul-16 @ 14:00 UTC
(6 hours ago)
Jul-17 @ 02:00 UTC
(in 6 hours)
Jul-16 @ 14:00 to Jul-17 @ 02:00
TAF CYYY 161342Z 1614/1702 VRB03KT P6SM FEW240
Wind Visibility Clouds
Variable at 3 knots Greater than 6 miles
  • Few at 24,000' AGL
Becoming Jul-16 @ 14:00 to Jul-16 @ 21:00
BECMG 1614/1616 28008KT
Wind Visibility Clouds
280° at 8 knots Greater than 6 miles
  • Few at 24,000' AGL
Becoming Jul-16 @ 21:00 to Jul-17 @ 02:00
BECMG 1621/1623 VRB03KT RMK NXT FCST BY 162000Z
Wind Visibility Clouds
Variable at 3 knots Greater than 6 miles
  • Few at 24,000' AGL
TAF CYYY 161342Z 1614/1702 VRB03KT P6SM FEW240 BECMG 1614/1616 28008KT BECMG 1621/1623 VRB03KT RMK NXT FCST BY 162000Z
Issued Jul-16 @ 13:42 UTC
(6 hours ago)
Valid From Jul-16 @ 14:00 UTC
(6 hours ago)
Valid To Jul-17 @ 02:00 UTC
(in 6 hours)
Jul-16 @ 14:00 - Jul-17 @ 02:00
Wind Visibility
Variable at 3 knots Greater than 6 miles
Clouds
  • Few at 24,000' AGL
Becoming Jul-16 @ 14:00 - Jul-16 @ 21:00
Wind Visibility
280° at 8 knots Greater than 6 miles
Clouds
  • Few at 24,000' AGL
Becoming Jul-16 @ 21:00 - Jul-17 @ 02:00
Wind Visibility
Variable at 3 knots Greater than 6 miles
Clouds
  • Few at 24,000' AGL